Time;durP1;ratioP1;P1;durP2;ratioP2;P2;SDS_P1;SDS_P2;PMS_P1;PMS_P2;Temp;Humidity;BMP_temperature;BMP_pressure;BME280_temperature;BME280_humidity;BME280_pressure;Samples;Min_cycle;Max_cycle;Signal;HPM_P1;HPM_P2
2022/09/24 00:01:09;;;;;;;3.50;1.70;;;;;;;14.69;100.00;101080.81;4803558;29;20321;-80
2022/09/24 00:03:34;;;;;;;3.72;1.50;;;;;;;14.59;100.00;101064.25;4813822;29;20037;-80
2022/09/24 00:06:04;;;;;;;5.97;1.85;;;;;;;14.68;100.00;101079.19;4812893;29;20026;-80
2022/09/24 00:08:31;;;;;;;3.88;1.80;;;;;;;14.42;100.00;101039.53;4829226;29;20099;-80
2022/09/24 00:11:00;;;;;;;5.78;1.60;;;;;;;14.62;100.00;101074.63;4841932;29;20376;-80
2022/09/24 00:13:26;;;;;;;5.07;1.60;;;;;;;14.65;100.00;101076.91;4848992;29;20062;-80
2022/09/24 00:15:52;;;;;;;4.28;1.60;;;;;;;14.64;100.00;101080.69;4814774;29;20124;-80
2022/09/24 00:18:18;;;;;;;5.93;1.83;;;;;;;14.65;100.00;101074.19;4846656;29;20026;-80
2022/09/24 00:20:43;;;;;;;4.75;1.50;;;;;;;14.51;100.00;101049.91;4827946;29;20030;-80
2022/09/24 00:23:10;;;;;;;6.50;1.60;;;;;;;14.48;100.00;101052.22;4828768;29;20030;-80
2022/09/24 00:28:38;;;;;;;6.50;2.10;;;;;;;14.42;100.00;101036.84;4812694;29;20072;-80
2022/09/24 00:31:05;;;;;;;4.40;2.10;;;;;;;14.71;100.00;101066.03;4795718;29;20046;-80
2022/09/24 00:33:33;;;;;;;6.07;2.28;;;;;;;14.69;100.00;101065.41;4831973;29;20093;-80
2022/09/24 00:36:01;;;;;;;5.25;2.45;;;;;;;14.70;100.00;101061.66;4828422;29;20044;-80
2022/09/24 00:38:28;;;;;;;10.20;3.28;;;;;;;14.59;100.00;101037.16;4827000;29;20030;-80
2022/09/24 00:40:53;;;;;;;10.57;3.85;;;;;;;14.68;100.00;101052.91;4828611;29;20048;-80
2022/09/24 00:43:33;;;;;;;14.13;6.72;;;;;;;14.37;100.00;100996.03;4812413;29;20034;-80
2022/09/24 00:46:10;;;;;;;17.40;8.30;;;;;;;14.74;100.00;101068.28;4826342;29;20029;-80
2022/09/24 00:48:37;;;;;;;16.95;8.75;;;;;;;14.65;100.00;101066.06;4827596;29;20058;-79
2022/09/24 00:51:04;;;;;;;18.52;10.98;;;;;;;14.49;100.00;101043.84;4809911;29;20077;-79
2022/09/24 00:53:32;;;;;;;20.30;11.52;;;;;;;14.56;100.00;101060.91;4812355;29;20556;-80
2022/09/24 00:55:59;;;;;;;21.17;11.15;;;;;;;14.39;100.00;101038.09;4831050;29;20146;-80
2022/09/24 00:58:26;;;;;;;21.58;11.57;;;;;;;14.38;100.00;101041.03;4831763;29;20063;-80
2022/09/24 01:00:58;;;;;;;18.40;11.68;;;;;;;14.00;100.00;100998.56;4846558;29;20109;-80
2022/09/24 01:03:25;;;;;;;19.95;12.15;;;;;;;14.44;100.00;101062.66;4831500;29;20037;-81
2022/09/24 01:05:51;;;;;;;22.88;12.10;;;;;;;14.28;100.00;101038.81;4832901;29;20129;-81
2022/09/24 01:08:19;;;;;;;21.27;12.20;;;;;;;14.40;100.00;101055.16;4834252;29;20144;-81
2022/09/24 01:11:13;;;;;;;20.30;12.73;;;;;;;14.39;100.00;101057.03;4835089;29;20090;-81
2022/09/24 01:14:04;;;;;;;25.20;13.65;;;;;;;14.37;100.00;101053.75;4833915;29;20452;-81
2022/09/24 01:16:55;;;;;;;21.48;12.88;;;;;;;14.28;100.00;101045.03;4830605;29;20026;-79
2022/09/24 01:19:39;;;;;;;19.00;13.82;;;;;;;14.32;100.00;101053.56;4843972;29;20037;-80
2022/09/24 01:22:23;;;;;;;23.98;13.85;;;;;;;14.24;100.00;101048.41;4828101;29;20041;-79
2022/09/24 01:25:11;;;;;;;23.60;14.13;;;;;;;14.23;100.00;101052.16;4831237;29;20141;-80
2022/09/24 01:28:03;;;;;;;22.23;14.20;;;;;;;14.23;100.00;101061.09;4840728;29;20273;-80
2022/09/24 01:30:31;;;;;;;17.20;12.82;;;;;;;14.01;100.00;101025.44;4833946;29;20473;-79
2022/09/24 01:33:02;;;;;;;21.90;15.05;;;;;;;13.99;100.00;101035.63;4825829;29;20026;-79
2022/09/24 01:35:41;;;;;;;22.27;14.68;;;;;;;14.02;100.00;101042.47;4825560;29;20026;-79
2022/09/24 01:38:20;;;;;;;23.98;16.02;;;;;;;14.13;100.00;101054.50;4826110;29;20034;-79
2022/09/24 01:40:47;;;;;;;18.77;14.57;;;;;;;14.07;100.00;101065.16;4826151;29;20026;-79
2022/09/24 01:43:15;;;;;;;21.65;15.02;;;;;;;13.84;100.00;101035.06;4826910;29;20062;-79
2022/09/24 01:45:40;;;;;;;23.77;16.90;;;;;;;13.89;100.00;101054.19;4826059;29;20041;-79
2022/09/24 01:48:07;;;;;;;19.85;15.05;;;;;;;13.92;100.00;101059.19;4842496;29;20070;-80
2022/09/24 01:50:45;;;;;;;19.92;15.32;;;;;;;13.90;100.00;101063.97;4826325;29;20052;-80
2022/09/24 01:53:17;;;;;;;20.13;14.77;;;;;;;13.86;100.00;101068.16;4843101;29;20026;-80
2022/09/24 01:55:48;;;;;;;25.65;15.70;;;;;;;13.85;100.00;101067.31;4824766;29;20022;-80
2022/09/24 01:58:24;;;;;;;26.10;16.67;;;;;;;13.72;100.00;101042.22;4842983;29;20030;-79
2022/09/24 02:00:56;;;;;;;23.90;15.77;;;;;;;13.82;100.00;101059.63;4834905;29;20062;-80
2022/09/24 02:03:28;;;;;;;25.58;15.50;;;;;;;13.57;100.00;101010.84;4845617;29;20036;-80
2022/09/24 02:06:07;;;;;;;21.50;15.32;;;;;;;13.72;100.00;101036.78;4830757;29;20120;-80
2022/09/24 02:08:38;;;;;;;21.13;15.88;;;;;;;13.82;100.00;101048.00;4846521;29;20536;-80
2022/09/24 02:11:13;;;;;;;22.02;15.35;;;;;;;13.82;100.00;101048.00;4848219;29;20038;-80
2022/09/24 02:14:05;;;;;;;22.67;15.98;;;;;;;13.80;100.00;101048.19;4846889;29;20094;-80
2022/09/24 02:16:37;;;;;;;20.83;15.30;;;;;;;13.82;100.00;101042.56;4846151;29;20044;-79
2022/09/24 02:19:06;;;;;;;25.00;16.27;;;;;;;13.64;100.00;101010.81;4840986;29;20080;-80
2022/09/24 02:21:36;;;;;;;18.45;15.32;;;;;;;13.72;100.00;101020.56;4846155;29;20041;-79
2022/09/24 02:24:12;;;;;;;19.92;15.75;;;;;;;13.87;100.00;101045.44;4843460;29;20026;-80
2022/09/24 02:26:38;;;;;;;25.40;16.05;;;;;;;13.63;100.00;100996.47;4828014;29;20081;-79
2022/09/24 02:29:04;;;;;;;18.77;13.32;;;;;;;13.71;100.00;101006.22;4810864;29;20113;-80
2022/09/24 02:31:33;;;;;;;16.95;10.77;;;;;;;13.88;100.00;101035.50;4827602;29;20113;-80
2022/09/24 02:34:19;;;;;;;16.17;11.00;;;;;;;13.52;100.00;100974.69;4845520;29;20030;-79
2022/09/24 02:36:56;;;;;;;13.20;9.15;;;;;;;13.76;100.00;101019.91;4829194;29;20033;-80
2022/09/24 02:39:22;;;;;;;12.68;7.32;;;;;;;13.80;100.00;101023.84;4829829;29;20040;-80
2022/09/24 02:41:49;;;;;;;9.70;6.68;;;;;;;13.81;100.00;101033.63;4813494;29;20137;-79
2022/09/24 02:44:15;;;;;;;11.40;7.07;;;;;;;13.81;100.00;101032.81;4828034;29;20041;-79
2022/09/24 02:46:44;;;;;;;7.65;5.63;;;;;;;13.28;100.00;100944.63;4840619;29;20026;-80
2022/09/24 02:49:09;;;;;;;10.60;6.30;;;;;;;12.81;100.00;100872.84;4824606;29;20389;-80
2022/09/24 02:51:35;;;;;;;11.00;6.38;;;;;;;13.76;100.00;101025.31;4811309;29;20030;-79
2022/09/24 02:54:01;;;;;;;8.38;5.82;;;;;;;13.75;100.00;101028.25;4827080;29;20369;-80
2022/09/24 02:56:27;;;;;;;10.60;5.97;;;;;;;13.73;100.00;101022.22;4825738;29;20418;-80
2022/09/24 02:58:53;;;;;;;11.25;5.57;;;;;;;13.33;100.00;100965.59;4811124;29;20030;-80
2022/09/24 03:01:19;;;;;;;8.20;5.32;;;;;;;13.68;100.00;101019.34;4824805;29;20027;-80
2022/09/24 03:03:44;;;;;;;9.52;5.95;;;;;;;13.54;100.00;101014.00;4826823;29;20428;-80
2022/09/24 03:06:13;;;;;;;7.97;5.93;;;;;;;13.64;100.00;101024.31;4825157;29;20023;-79
2022/09/24 03:08:41;;;;;;;10.32;5.90;;;;;;;13.62;100.00;101027.25;4821636;29;20117;-80
2022/09/24 03:11:07;;;;;;;9.23;5.50;;;;;;;13.08;100.00;100946.53;4811033;29;20038;-80
2022/09/24 03:13:33;;;;;;;14.07;6.07;;;;;;;12.58;100.00;100873.31;4822788;29;20192;-79
2022/09/24 03:15:59;;;;;;;7.50;5.50;;;;;;;13.54;100.00;101030.22;4795594;29;20094;-80
2022/09/24 03:18:24;;;;;;;7.70;5.30;;;;;;;13.51;100.00;101036.03;4824742;29;20125;-79
2022/09/24 03:21:17;;;;;;;12.45;6.10;;;;;;;13.36;100.00;101009.25;4791353;29;20038;-80
2022/09/24 03:23:43;;;;;;;10.05;5.43;;;;;;;13.35;100.00;101013.00;4821872;29;20049;-80
2022/09/24 03:26:09;;;;;;;9.70;5.35;;;;;;;13.45;100.00;101025.25;4809242;29;20030;-80
2022/09/24 03:28:34;;;;;;;9.90;5.68;;;;;;;13.44;100.00;101020.88;4807019;29;20038;-80
2022/09/24 03:31:00;;;;;;;6.53;5.13;;;;;;;13.30;100.00;101003.84;4803194;29;20715;-79
2022/09/24 03:33:32;;;;;;;10.70;5.15;;;;;;;13.40;100.00;101020.47;4825212;29;20035;-79
2022/09/24 03:36:01;;;;;;;6.82;4.93;;;;;;;13.24;100.00;101001.97;4824213;29;20034;-79
2022/09/24 03:38:28;;;;;;;9.00;4.90;;;;;;;13.37;100.00;101026.28;4823266;29;20030;-80
2022/09/24 03:40:54;;;;;;;6.60;4.97;;;;;;;13.35;100.00;101031.09;4824946;29;20034;-79
2022/09/24 03:43:20;;;;;;;9.70;5.13;;;;;;;13.35;100.00;101025.69;4810243;29;20113;-80
2022/09/24 03:45:48;;;;;;;10.75;4.68;;;;;;;12.97;100.00;100963.38;4825655;29;20026;-80
2022/09/24 03:48:14;;;;;;;8.80;4.80;;;;;;;13.15;100.00;101004.91;4810096;29;20081;-79
2022/09/24 03:50:39;;;;;;;6.20;4.53;;;;;;;13.01;100.00;100967.31;4824587;29;20053;-79
2022/09/24 03:53:05;;;;;;;6.72;4.38;;;;;;;13.04;100.00;100992.03;4823248;29;20077;-80
2022/09/24 03:55:31;;;;;;;11.27;5.10;;;;;;;13.05;100.00;100996.41;4809845;29;20094;-79
2022/09/24 03:57:56;;;;;;;10.65;4.97;;;;;;;13.21;100.00;101010.50;4807652;29;20075;-80
2022/09/24 04:00:24;;;;;;;9.93;4.75;;;;;;;13.23;100.00;101013.84;4823681;29;20109;-80
2022/09/24 04:02:50;;;;;;;10.45;4.93;;;;;;;13.23;100.00;101016.53;4809711;29;20030;-79
2022/09/24 04:05:16;;;;;;;6.35;4.82;;;;;;;13.10;100.00;100993.06;4808699;29;20361;-80
2022/09/24 04:07:43;;;;;;;6.68;4.45;;;;;;;13.16;100.00;101005.75;4794524;29;20430;-79
2022/09/24 04:10:08;;;;;;;6.72;4.80;;;;;;;13.18;100.00;101014.47;4824876;29;20091;-79
2022/09/24 04:12:34;;;;;;;7.32;4.80;;;;;;;13.16;100.00;101017.38;4809727;29;20031;-80
2022/09/24 04:15:01;;;;;;;6.88;4.47;;;;;;;13.16;100.00;101022.78;4824678;29;20347;-79
2022/09/24 04:17:30;;;;;;;6.30;4.03;;;;;;;12.94;100.00;100983.53;4821756;29;20042;-80
2022/09/24 04:19:58;;;;;;;5.00;4.10;;;;;;;13.15;100.00;101020.31;4824765;29;20123;-80
2022/09/24 04:22:25;;;;;;;5.18;4.00;;;;;;;13.05;100.00;101004.53;4806757;29;20039;-80
2022/09/24 04:24:51;;;;;;;6.32;4.18;;;;;;;13.09;100.00;101018.44;4808093;29;20065;-80
2022/09/24 04:27:17;;;;;;;8.98;4.57;;;;;;;13.13;100.00;101022.38;4825892;29;20369;-79
2022/09/24 04:29:42;;;;;;;8.93;4.78;;;;;;;13.11;100.00;101019.03;4808937;29;20137;-80
2022/09/24 04:32:07;;;;;;;10.52;4.15;;;;;;;13.09;100.00;101019.25;4806450;29;20343;-80
2022/09/24 04:34:33;;;;;;;8.00;4.50;;;;;;;12.83;100.00;100978.78;4806126;29;20054;-79
2022/09/24 04:36:58;;;;;;;8.43;4.50;;;;;;;13.09;100.00;101023.84;4818027;29;20445;-80
2022/09/24 04:39:26;;;;;;;7.40;4.50;;;;;;;13.08;100.00;101023.00;4805050;29;20122;-80
2022/09/24 04:41:52;;;;;;;7.90;4.53;;;;;;;13.06;100.00;101019.69;4824284;29;20038;-80
2022/09/24 04:44:17;;;;;;;6.43;4.82;;;;;;;12.92;100.00;100999.97;4808874;29;20050;-80
2022/09/24 04:46:42;;;;;;;9.65;4.30;;;;;;;13.03;100.00;101021.97;4805374;29;20073;-80
2022/09/24 04:49:08;;;;;;;9.98;4.88;;;;;;;12.76;100.00;100981.50;4808418;29;20147;-80
2022/09/24 04:51:34;;;;;;;9.25;4.60;;;;;;;12.94;100.00;101013.25;4806969;29;20035;-80
2022/09/24 04:54:01;;;;;;;7.65;4.80;;;;;;;12.96;100.00;101019.28;4824762;29;20452;-80
2022/09/24 04:56:27;;;;;;;6.82;4.95;;;;;;;12.94;100.00;101016.78;4824016;29;20087;-80
2022/09/24 04:58:53;;;;;;;9.48;4.90;;;;;;;12.94;100.00;101024.06;4823648;29;20035;-79
2022/09/24 05:01:19;;;;;;;6.85;4.90;;;;;;;12.80;100.00;100996.22;4804056;29;20449;-79
2022/09/24 05:03:44;;;;;;;9.90;5.35;;;;;;;12.91;100.00;101019.06;4823337;29;20041;-80
2022/09/24 05:06:10;;;;;;;7.72;5.10;;;;;;;12.91;100.00;101013.66;4808430;29;20119;-80
2022/09/24 05:08:35;;;;;;;9.65;5.15;;;;;;;12.81;100.00;100997.88;4807282;29;20129;-80
2022/09/24 05:11:01;;;;;;;7.80;4.90;;;;;;;12.89;100.00;101016.59;4808720;29;20155;-80
2022/09/24 05:13:27;;;;;;;6.65;4.70;;;;;;;12.77;100.00;100993.13;4807081;29;20052;-80
2022/09/24 05:15:52;;;;;;;8.93;4.80;;;;;;;12.78;100.00;101000.16;4808944;29;20049;-80
2022/09/24 05:18:18;;;;;;;8.90;5.20;;;;;;;12.62;100.00;100975.28;4823369;29;20038;-80
2022/09/24 05:20:43;;;;;;;8.38;4.80;;;;;;;12.53;100.00;100971.13;4809180;29;20632;-80
2022/09/24 05:23:09;;;;;;;6.93;5.00;;;;;;;12.85;100.00;101020.75;4825462;29;20702;-80
2022/09/24 05:27:07;;;;;;;7.43;5.03;;;;;;;12.82;100.00;101014.94;4824808;29;20101;-80
2022/09/24 05:28:20;;;;;;;9.50;4.93;;;;;;;12.85;100.00;101025.31;4823014;29;20034;-80
2022/09/24 05:30:46;;;;;;;8.27;5.25;;;;;;;12.84;100.00;101020.94;4815346;29;20172;-80
2022/09/24 05:33:12;;;;;;;9.05;5.35;;;;;;;12.85;100.00;101025.31;4804105;29;20425;-80
2022/09/24 05:35:37;;;;;;;10.23;5.07;;;;;;;12.85;100.00;101019.94;4804832;29;20038;-80
2022/09/24 05:38:03;;;;;;;8.30;4.90;;;;;;;12.84;100.00;101023.66;4816660;29;20054;-80
2022/09/24 05:40:46;;;;;;;8.55;5.07;;;;;;;12.75;100.00;101016.78;4805588;29;20076;-80
2022/09/24 05:43:12;;;;;;;8.38;5.22;;;;;;;12.84;100.00;101023.66;4805444;29;20035;-80
2022/09/24 05:45:37;;;;;;;10.43;5.47;;;;;;;12.68;100.00;100998.75;4824088;29;20038;-80
2022/09/24 05:48:03;;;;;;;8.48;4.93;;;;;;;12.75;100.00;101019.50;4829688;29;20437;-80
2022/09/24 05:50:28;;;;;;;8.30;5.07;;;;;;;12.35;100.00;100949.31;4842213;29;20142;-80
2022/09/24 05:52:54;;;;;;;8.45;5.60;;;;;;;12.86;100.00;101033.22;4826586;29;20030;-80
2022/09/24 05:55:19;;;;;;;7.78;4.80;;;;;;;12.82;100.00;101025.75;4823114;29;20030;-80
2022/09/24 05:57:45;;;;;;;9.43;5.30;;;;;;;12.90;100.00;101037.16;4826647;29;20053;-80
2022/09/24 06:00:10;;;;;;;9.30;5.63;;;;;;;12.92;100.00;101037.78;4793327;29;20034;-80
2022/09/24 06:02:36;;;;;;;8.18;4.90;;;;;;;12.92;100.00;101040.47;4810960;29;20049;-80
2022/09/24 06:05:01;;;;;;;10.35;4.90;;;;;;;12.94;100.00;101041.06;4811878;29;20577;-80
2022/09/24 06:07:27;;;;;;;8.75;5.00;;;;;;;12.94;100.00;101040.25;4796471;29;20030;-80
2022/09/24 06:09:52;;;;;;;7.80;5.05;;;;;;;12.93;100.00;101039.44;4828293;29;20456;-80
2022/09/24 06:12:18;;;;;;;7.43;5.40;;;;;;;12.95;100.00;101039.25;4828378;29;20373;-80
2022/09/24 06:14:43;;;;;;;8.73;4.93;;;;;;;12.80;100.00;101014.31;4815700;29;20034;-80
2022/09/24 06:17:09;;;;;;;7.95;4.70;;;;;;;13.00;100.00;101046.69;4842031;29;20141;-80
2022/09/24 06:19:35;;;;;;;8.25;4.80;;;;;;;12.74;100.00;100996.22;4827540;29;20476;-80
2022/09/24 06:22:01;;;;;;;8.40;4.78;;;;;;;12.75;100.00;101009.53;4857675;29;20026;-80
2022/09/24 06:24:26;;;;;;;10.80;4.70;;;;;;;12.64;100.00;100985.84;4840454;29;20034;-80
2022/09/24 06:26:51;;;;;;;8.00;4.90;;;;;;;12.98;100.00;101040.66;4827105;29;20110;-80
2022/09/24 06:29:17;;;;;;;6.97;4.82;;;;;;;12.87;100.00;101036.72;4797799;29;20529;-80
2022/09/24 06:31:43;;;;;;;8.48;4.90;;;;;;;12.78;100.00;101014.53;4828261;29;20048;-80
2022/09/24 06:34:09;;;;;;;6.22;4.22;;;;;;;12.94;100.00;101053.75;4811883;29;20046;-80
2022/09/24 06:36:34;;;;;;;7.85;4.55;;;;;;;12.76;100.00;101022.00;4796537;29;20086;-79
2022/09/24 06:39:00;;;;;;;10.38;4.80;;;;;;;12.92;100.00;101048.59;4820592;29;20033;-80
2022/09/24 06:41:25;;;;;;;7.93;4.57;;;;;;;12.95;100.00;101050.03;4809697;29;20042;-80
2022/09/24 06:43:53;;;;;;;8.57;5.13;;;;;;;12.84;100.00;101020.94;4824145;29;20026;-80
2022/09/24 06:46:18;;;;;;;8.40;4.55;;;;;;;12.86;100.00;101022.41;4838992;29;20507;-81
2022/09/24 06:48:44;;;;;;;6.88;4.25;;;;;;;12.71;100.00;101000.19;4814685;29;20093;-80
2022/09/24 06:51:09;;;;;;;5.75;4.30;;;;;;;13.00;100.00;101044.00;4816844;29;20062;-80
2022/09/24 06:53:34;;;;;;;7.97;4.97;;;;;;;13.00;100.00;101042.13;4830168;29;20033;-80
2022/09/24 06:56:02;;;;;;;8.02;4.40;;;;;;;13.06;100.00;101043.16;4800026;29;20044;-80
2022/09/24 06:58:28;;;;;;;9.60;4.47;;;;;;;12.97;100.00;101030.91;4828400;29;20448;-80
2022/09/24 07:01:03;;;;;;;8.48;4.30;;;;;;;12.85;100.00;101006.44;4825201;29;20030;-80
2022/09/24 07:03:30;;;;;;;8.23;4.40;;;;;;;13.05;100.00;101034.25;4844733;29;20461;-80
2022/09/24 07:05:59;;;;;;;7.85;3.85;;;;;;;12.90;100.00;101006.59;4845562;29;20482;-80
2022/09/24 07:08:26;;;;;;;7.85;4.30;;;;;;;12.48;100.00;100935.81;4845246;29;20025;-79
2022/09/24 07:10:51;;;;;;;7.05;4.10;;;;;;;13.11;100.00;101032.53;4829925;29;20030;-80
2022/09/24 07:13:19;;;;;;;10.77;4.55;;;;;;;13.17;100.00;101042.50;4827253;29;20485;-80
2022/09/24 07:15:44;;;;;;;8.45;4.55;;;;;;;13.26;100.00;101056.69;4830514;29;20135;-80
2022/09/24 07:18:11;;;;;;;6.68;4.40;;;;;;;13.25;100.00;101061.25;4830244;29;20121;-80
2022/09/24 07:20:37;;;;;;;8.40;4.63;;;;;;;13.12;100.00;101048.56;4830025;29;20475;-80
2022/09/24 07:23:06;;;;;;;7.40;4.35;;;;;;;13.25;100.00;101063.97;4830317;29;20034;-81
2022/09/24 07:25:32;;;;;;;8.60;4.38;;;;;;;13.26;100.00;101072.91;4812144;29;20036;-80
2022/09/24 07:28:07;;;;;;;6.97;4.28;;;;;;;13.11;100.00;101051.47;4816639;29;20065;-80
2022/09/24 07:30:34;;;;;;;6.88;4.45;;;;;;;13.11;100.00;101052.31;4850307;29;20053;-79
2022/09/24 07:33:00;;;;;;;8.05;4.30;;;;;;;13.22;100.00;101068.94;4839064;29;20597;-80
2022/09/24 07:35:27;;;;;;;8.60;4.18;;;;;;;13.15;100.00;101061.66;4846151;29;20134;-80
2022/09/24 07:37:57;;;;;;;9.02;4.25;;;;;;;13.20;100.00;101069.13;4846141;29;20045;-80
2022/09/24 07:40:23;;;;;;;6.95;4.05;;;;;;;13.06;100.00;101041.28;4862947;29;20046;-80
2022/09/24 07:42:49;;;;;;;7.07;4.20;;;;;;;13.25;100.00;101069.38;4830795;29;20038;-81
2022/09/24 07:45:16;;;;;;;6.97;4.20;;;;;;;13.12;100.00;101043.16;4861049;29;20512;-81
2022/09/24 07:47:41;;;;;;;7.53;4.20;;;;;;;13.22;100.00;101050.00;4862431;29;20115;-81
2022/09/24 07:50:07;;;;;;;10.90;4.45;;;;;;;13.44;100.00;101070.34;4832622;29;20049;-80
2022/09/24 07:52:33;;;;;;;9.38;4.28;;;;;;;13.54;100.00;101078.03;4833319;29;20133;-80
2022/09/24 07:54:58;;;;;;;9.18;4.80;;;;;;;13.55;100.00;101061.59;4850472;29;20026;-81
2022/09/24 07:57:26;;;;;;;8.07;4.38;;;;;;;13.74;100.00;101075.25;4822099;29;20057;-81
2022/09/24 07:59:52;;;;;;;7.43;4.55;;;;;;;13.82;100.00;101077.75;4827904;29;20034;-80
2022/09/24 08:02:19;;;;;;;6.47;4.32;;;;;;;13.91;100.00;101078.31;4817094;29;20209;-81
2022/09/24 08:04:45;;;;;;;8.98;4.40;;;;;;;13.94;100.00;101081.44;4839625;29;20066;-81
2022/09/24 08:07:11;;;;;;;9.52;4.40;;;;;;;14.04;100.00;101083.69;4814197;29;20067;-80
2022/09/24 08:09:38;;;;;;;7.18;4.28;;;;;;;14.10;100.00;101077.41;4828833;29;20045;-81
2022/09/24 08:12:04;;;;;;;7.85;4.07;;;;;;;14.17;100.00;101082.78;4812823;29;20121;-81
2022/09/24 08:14:29;;;;;;;7.40;4.10;;;;;;;14.21;100.00;101081.31;4813193;29;20068;-80
2022/09/24 08:16:55;;;;;;;7.95;4.25;;;;;;;14.14;100.00;101066.97;4795709;29;20033;-81
2022/09/24 08:19:22;;;;;;;11.27;4.13;;;;;;;13.98;100.00;101030.44;4833060;29;20448;-81
2022/09/24 08:21:47;;;;;;;8.75;4.43;;;;;;;14.27;100.00;101086.69;4816871;29;20058;-81
2022/09/24 08:24:14;;;;;;;8.38;4.50;;;;;;;14.29;100.00;101086.47;4833301;29;20030;-81
2022/09/24 08:26:51;;;;;;;11.43;4.88;;;;;;;14.30;100.00;101082.69;4829013;29;20571;-80
2022/09/24 08:29:17;;;;;;;8.48;4.20;;;;;;;14.30;100.00;101091.69;4846195;29;20010;-81
2022/09/24 08:31:42;;;;;;;8.18;5.03;;;;;;;14.31;100.00;101087.09;4832883;29;20049;-81
2022/09/24 08:34:07;;;;;;;10.30;4.88;;;;;;;13.73;100.00;100995.19;4840663;29;20049;-81
2022/09/24 08:36:33;;;;;;;8.85;4.97;;;;;;;14.01;100.00;101032.72;4832418;29;20033;-81
2022/09/24 08:38:58;;;;;;;8.48;4.60;;;;;;;14.36;100.00;101089.13;4827730;29;20062;-80
2022/09/24 08:41:54;;;;;;;6.55;4.70;;;;;;;14.09;100.00;101035.16;4814919;29;20031;-80
2022/09/24 08:47:32;;;;;;;8.15;4.93;;;;;;;14.28;100.00;101071.28;4851967;29;20048;-81
2022/09/24 08:50:08;;;;;;;11.75;5.43;;;;;;;14.39;100.00;101080.59;4840229;29;20074;-81
2022/09/24 08:52:44;;;;;;;7.90;4.78;;;;;;;14.49;100.00;101092.59;4842900;29;20030;-81
2022/09/24 08:55:51;;;;;;;6.68;4.50;;;;;;;14.56;100.00;101098.00;4827331;29;20035;-81
2022/09/24 08:58:32;;;;;;;8.73;4.93;;;;;;;14.59;100.00;101099.44;4775759;30;20032;-80
2022/09/24 09:01:12;;;;;;;7.68;4.85;;;;;;;14.62;100.00;101099.00;4788573;30;20040;-81
2022/09/24 09:03:38;;;;;;;7.10;4.75;;;;;;;14.66;100.00;101100.22;4834089;29;20094;-81
2022/09/24 09:06:13;;;;;;;6.97;4.45;;;;;;;14.74;100.00;101099.97;4844152;29;20018;-80
2022/09/24 09:08:51;;;;;;;12.38;5.63;;;;;;;14.86;100.00;101097.38;4842599;29;20090;-80
2022/09/24 09:11:22;;;;;;;8.20;5.00;;;;;;;14.98;100.00;101099.16;4842889;29;20113;-81
2022/09/24 09:13:55;;;;;;;7.47;4.50;;;;;;;14.61;100.00;101024.25;4842880;29;20065;-80
2022/09/24 09:16:25;;;;;;;7.40;5.00;;;;;;;14.90;100.00;101050.66;4832355;29;20034;-81
2022/09/24 09:18:54;;;;;;;8.90;4.70;;;;;;;14.94;100.00;101060.00;4828061;29;20061;-81
2022/09/24 09:21:41;;;;;;;8.63;5.00;;;;;;;15.25;100.00;101110.59;4831588;29;20030;-81
2022/09/24 09:24:16;;;;;;;8.13;4.70;;;;;;;15.05;100.00;101080.13;4831116;29;20045;-81
2022/09/24 09:26:47;;;;;;;7.15;4.30;;;;;;;15.28;100.00;101109.31;4832533;29;20053;-81
2022/09/24 09:29:12;;;;;;;10.48;4.20;;;;;;;15.33;100.00;101109.50;4831783;29;20087;-81
2022/09/24 09:32:08;;;;;;;10.00;4.13;;;;;;;15.36;100.00;101117.16;4817233;29;20505;-81
2022/09/24 09:35:07;;;;;;;11.40;4.35;;;;;;;15.34;100.00;101111.16;4830702;29;20098;-81
2022/09/24 09:37:46;;;;;;;5.75;4.05;;;;;;;15.26;100.00;101087.88;4831942;29;20031;-81
2022/09/24 09:40:30;;;;;;;7.22;4.07;;;;;;;15.43;100.00;101117.94;4831977;29;20037;-81
2022/09/24 09:43:01;;;;;;;6.20;4.07;;;;;;;15.33;100.00;101095.09;4827910;29;20026;-81
2022/09/24 09:46:08;;;;;;;10.18;4.13;;;;;;;15.43;100.00;101106.25;4832595;29;20063;-81
2022/09/24 09:48:54;;;;;;;8.90;3.92;;;;;;;15.39;100.00;101114.00;4795871;29;20039;-81
2022/09/24 09:51:24;;;;;;;8.32;4.20;;;;;;;15.23;100.00;101084.75;4830388;29;20536;-81
2022/09/24 09:53:55;;;;;;;8.07;3.95;;;;;;;15.31;100.00;101099.91;4830768;29;20113;-81
2022/09/24 09:56:27;;;;;;;6.45;4.03;;;;;;;15.44;100.00;101103.31;4830066;29;20026;-81
2022/09/24 09:59:05;;;;;;;7.55;4.35;;;;;;;15.44;100.00;101100.63;4831294;29;20034;-80
2022/09/24 10:01:33;;;;;;;7.22;4.05;;;;;;;15.48;100.00;101107.25;4831103;29;20031;-80
2022/09/24 10:04:03;;;;;;;7.43;3.80;;;;;;;15.17;100.00;101051.25;4831075;29;20043;-81
2022/09/24 10:06:34;;;;;;;7.93;3.50;;;;;;;15.55;100.00;101112.59;4831077;29;20038;-81
2022/09/24 10:09:15;;;;;;;8.02;4.15;;;;;;;15.33;100.00;101071.53;4830230;29;20042;-81
2022/09/24 10:11:41;;;;;;;8.77;4.40;;;;;;;15.48;100.00;101095.56;4831142;29;20510;-81
2022/09/24 10:14:12;;;;;;;9.35;4.00;;;;;;;15.57;100.00;101104.25;4830523;29;20040;-80
2022/09/24 10:16:40;;;;;;;7.28;4.25;;;;;;;15.56;100.00;101103.41;4831573;29;20030;-81
2022/09/24 10:19:22;;;;;;;7.38;3.97;;;;;;;15.53;100.00;101101.16;4831101;29;20038;-81
2022/09/24 10:21:49;;;;;;;5.70;3.72;;;;;;;15.58;100.00;101108.59;4829683;29;20067;-81
2022/09/24 10:24:18;;;;;;;6.65;4.00;;;;;;;15.63;100.00;101103.31;4820087;29;20110;-81
2022/09/24 10:26:45;;;;;;;8.13;4.05;;;;;;;15.44;100.00;101068.06;4834518;29;20045;-81
2022/09/24 10:32:25;;;;;;;8.57;3.97;;;;;;;15.68;100.00;101111.66;4830183;29;20041;-81
2022/09/24 10:35:04;;;;;;;5.50;3.92;;;;;;;15.72;100.00;101115.56;4816256;29;20035;-80
2022/09/24 10:37:31;;;;;;;7.65;3.95;;;;;;;15.49;100.00;101061.97;4802032;29;20378;-80
2022/09/24 10:40:22;;;;;;;8.13;4.05;;;;;;;15.89;100.00;101108.50;4835388;29;20042;-80
2022/09/24 10:42:56;;;;;;;8.10;4.20;;;;;;;15.95;100.00;101118.44;4833300;29;20019;-81
2022/09/24 10:45:28;;;;;;;6.35;3.88;;;;;;;15.62;100.00;101059.09;4817473;29;20038;-81
2022/09/24 10:48:22;;;;;;;9.05;3.78;;;;;;;15.98;100.00;101106.31;4816460;29;20043;-81
2022/09/24 10:50:59;;;;;;;5.60;3.60;;;;;;;16.06;100.00;101102.44;4835794;29;20049;-81
2022/09/24 10:53:50;;;;;;;5.57;3.70;;;;;;;16.09;100.00;101112.84;4835451;29;20079;-80
2022/09/24 10:56:30;;;;;;;6.55;3.92;;;;;;;15.95;100.00;101080.44;4835323;29;20034;-81
2022/09/24 10:59:02;;;;;;;7.43;3.80;;;;;;;16.16;100.00;101110.91;4831148;29;20054;-81
2022/09/24 11:01:48;;;;;;;9.75;4.20;;;;;;;16.15;100.00;101109.22;4836079;29;20109;-81
2022/09/24 11:04:24;;;;;;;7.68;4.15;;;;;;;16.16;100.00;101100.88;4835443;29;20031;-80
2022/09/24 11:07:16;;;;;;;8.32;5.00;;;;;;;16.16;100.00;101094.59;4836164;29;20030;-80
2022/09/24 11:09:53;;;;;;;6.30;4.85;;;;;;;15.81;100.00;101046.41;4834622;29;20038;-81
2022/09/24 11:12:32;;;;;;;7.10;4.82;;;;;;;16.15;100.00;101092.94;4835291;29;20046;-81
2022/09/24 11:15:19;;;;;;;8.60;5.15;;;;;;;16.29;100.00;101102.59;4832077;29;20049;-81
2022/09/24 11:18:03;;;;;;;8.32;5.20;;;;;;;16.32;100.00;101107.53;4835396;29;20030;-81
2022/09/24 11:21:17;;;;;;;10.50;5.30;;;;;;;16.27;100.00;101098.44;4835388;29;20058;-81
2022/09/24 11:24:04;;;;;;;9.30;5.20;;;;;;;16.29;100.00;101090.88;4769091;29;20054;-80
2022/09/24 11:26:47;;;;;;;9.57;4.93;;;;;;;16.43;100.00;101106.75;4834787;29;20022;-81
2022/09/24 11:29:37;;;;;;;11.20;5.28;;;;;;;16.34;100.00;101085.59;4835012;29;20064;-81
2022/09/24 11:32:11;;;;;;;10.68;6.10;;;;;;;16.50;100.00;101103.94;4834622;29;20045;-81
2022/09/24 11:35:02;;;;;;;9.83;5.83;;;;;;;16.54;100.00;101115.19;4834872;29;20030;-81
2022/09/24 11:37:55;;;;;;;8.23;5.55;;;;;;;16.54;100.00;101099.69;4835713;29;20269;-81
2022/09/24 11:40:34;;;;;;;10.88;5.80;;;;;;;16.43;100.00;101070.63;4828594;29;20428;-81